Time;durP1;ratioP1;P1;durP2;ratioP2;P2;SDS_P1;SDS_P2;PMS_P1;PMS_P2;Temp;Humidity;BMP_temperature;BMP_pressure;BME280_temperature;BME280_humidity;BME280_pressure;Samples;Min_cycle;Max_cycle;Signal;HPM_P1;HPM_P2
2023/07/14 00:01:54;;;;;;;4.67;1.83;;;;;;;;;;5035394;28;20415;-62
2023/07/14 00:04:27;;;;;;;2.40;1.30;;;;;;;;;;5035658;28;20434;-62
2023/07/14 00:06:53;;;;;;;1.20;1.20;;;;;;;;;;5035227;28;21092;-62
2023/07/14 00:09:22;;;;;;;4.80;1.30;;;;;;;;;;5035634;28;20435;-62
2023/07/14 00:11:48;;;;;;;2.57;1.57;;;;;;;;;;5035455;28;20476;-62
2023/07/14 00:14:14;;;;;;;3.07;1.50;;;;;;;;;;5035509;28;20546;-61
2023/07/14 00:16:40;;;;;;;5.07;1.60;;;;;;;;;;5035501;28;20503;-62
2023/07/14 00:19:11;;;;;;;1.87;1.27;;;;;;;;;;5035437;28;20477;-62
2023/07/14 00:21:37;;;;;;;2.00;1.77;;;;;;;;;;5034982;28;20439;-62
2023/07/14 00:24:05;;;;;;;3.93;1.10;;;;;;;;;;5035206;28;20430;-62
2023/07/14 00:26:31;;;;;;;1.60;1.50;;;;;;;;;;5035110;28;20790;-62
2023/07/14 00:28:57;;;;;;;3.20;1.30;;;;;;;;;;5034996;28;20469;-62
2023/07/14 00:31:23;;;;;;;3.83;1.80;;;;;;;;;;5034277;28;20411;-62
2023/07/14 00:33:51;;;;;;;2.00;1.77;;;;;;;;;;5034780;28;20430;-62
2023/07/14 00:36:22;;;;;;;2.67;1.50;;;;;;;;;;5034796;28;20477;-62
2023/07/14 00:38:47;;;;;;;3.23;2.30;;;;;;;;;;5035006;28;20479;-62
2023/07/14 00:41:21;;;;;;;2.07;2.00;;;;;;;;;;5035021;28;20453;-61
2023/07/14 00:43:48;;;;;;;6.13;1.83;;;;;;;;;;5034902;28;20446;-62
2023/07/14 00:46:27;;;;;;;3.17;1.50;;;;;;;;;;5034879;28;21031;-62
2023/07/14 00:48:55;;;;;;;2.13;1.47;;;;;;;;;;5034514;28;20767;-62
2023/07/14 00:51:23;;;;;;;4.93;1.90;;;;;;;;;;5034296;28;20478;-62
2023/07/14 00:53:51;;;;;;;3.00;2.03;;;;;;;;;;5034416;28;20434;-62
2023/07/14 00:56:30;;;;;;;1.37;1.37;;;;;;;;;;5034706;28;20474;-62
2023/07/14 00:58:57;;;;;;;2.87;1.37;;;;;;;;;;5034601;28;20446;-62
2023/07/14 01:01:23;;;;;;;1.50;1.40;;;;;;;;;;5034540;28;20421;-62
2023/07/14 01:03:50;;;;;;;1.53;1.43;;;;;;;;;;5034443;28;20419;-62
2023/07/14 01:06:22;;;;;;;1.33;1.33;;;;;;;;;;5034846;28;20482;-62
2023/07/14 01:08:57;;;;;;;1.80;1.70;;;;;;;;;;5034432;28;20407;-62
2023/07/14 01:11:30;;;;;;;1.70;1.60;;;;;;;;;;5034341;28;20414;-62
2023/07/14 01:13:57;;;;;;;1.60;1.30;;;;;;;;;;5034096;28;20923;-62
2023/07/14 01:16:23;;;;;;;1.73;1.63;;;;;;;;;;5034293;28;20800;-62
2023/07/14 01:18:50;;;;;;;1.70;1.60;;;;;;;;;;5034237;28;20411;-62
2023/07/14 01:21:16;;;;;;;6.23;1.77;;;;;;;;;;5034694;28;20518;-62
2023/07/14 01:23:49;;;;;;;2.83;1.20;;;;;;;;;;5033889;28;20412;-62
2023/07/14 01:26:33;;;;;;;1.07;1.07;;;;;;;;;;5033860;28;20450;-62
2023/07/14 01:32:10;;;;;;;1.67;1.57;;;;;;;;;;5033816;28;20465;-62
2023/07/14 01:34:37;;;;;;;4.53;1.43;;;;;;;;;;5049013;28;20474;-62
2023/07/14 01:37:03;;;;;;;5.40;1.80;;;;;;;;;;5034030;28;20425;-62
2023/07/14 01:39:29;;;;;;;3.97;1.33;;;;;;;;;;5033847;28;20412;-62
2023/07/14 01:41:56;;;;;;;1.63;1.53;;;;;;;;;;5033636;28;20481;-62
2023/07/14 01:44:23;;;;;;;2.50;1.47;;;;;;;;;;5033530;28;20809;-62
2023/07/14 01:46:50;;;;;;;1.50;1.50;;;;;;;;;;5033757;28;20470;-62
2023/07/14 01:49:28;;;;;;;1.60;1.50;;;;;;;;;;5033491;28;20427;-62
2023/07/14 01:51:57;;;;;;;2.10;1.63;;;;;;;;;;5033707;28;20510;-62
2023/07/14 01:54:38;;;;;;;1.70;1.53;;;;;;;;;;5033643;28;20489;-62
2023/07/14 01:57:06;;;;;;;2.10;1.37;;;;;;;;;;5033364;28;20941;-62
2023/07/14 01:59:34;;;;;;;2.03;2.00;;;;;;;;;;5033343;28;20466;-62
2023/07/14 02:02:00;;;;;;;1.93;1.80;;;;;;;;;;5033320;28;20430;-62
2023/07/14 02:04:29;;;;;;;1.57;1.53;;;;;;;;;;5033519;28;20431;-62
2023/07/14 02:06:58;;;;;;;2.60;1.43;;;;;;;;;;5034268;28;20482;-62
2023/07/14 02:09:28;;;;;;;10.33;1.47;;;;;;;;;;5033487;28;20412;-62
2023/07/14 02:11:56;;;;;;;1.20;1.20;;;;;;;;;;5033106;28;20419;-62
2023/07/14 02:14:22;;;;;;;1.17;1.17;;;;;;;;;;5033374;28;20415;-62
2023/07/14 02:16:49;;;;;;;1.80;1.70;;;;;;;;;;5033439;28;20423;-62
2023/07/14 02:19:21;;;;;;;2.17;1.80;;;;;;;;;;5033413;28;20498;-62
2023/07/14 02:21:48;;;;;;;1.73;1.73;;;;;;;;;;5033329;28;20423;-62
2023/07/14 02:24:18;;;;;;;1.43;1.30;;;;;;;;;;5033692;28;20415;-62
2023/07/14 02:26:46;;;;;;;1.47;1.37;;;;;;;;;;5033287;28;20505;-62
2023/07/14 02:29:12;;;;;;;7.10;1.93;;;;;;;;;;5033059;28;20443;-62
2023/07/14 02:31:42;;;;;;;2.77;1.30;;;;;;;;;;5032969;28;20424;-62
2023/07/14 02:34:10;;;;;;;2.03;2.00;;;;;;;;;;5032850;28;20415;-62
2023/07/14 02:36:45;;;;;;;4.03;1.60;;;;;;;;;;5033210;28;20449;-62
2023/07/14 02:39:11;;;;;;;1.67;1.67;;;;;;;;;;5032940;28;20404;-62
2023/07/14 02:41:41;;;;;;;3.40;1.30;;;;;;;;;;5033025;28;20787;-63
2023/07/14 02:44:09;;;;;;;2.13;1.80;;;;;;;;;;5033662;28;20771;-62
2023/07/14 02:46:39;;;;;;;6.00;1.43;;;;;;;;;;5033089;28;20470;-62
2023/07/14 02:49:05;;;;;;;2.43;2.33;;;;;;;;;;5032641;28;20459;-62
2023/07/14 02:51:32;;;;;;;2.63;1.93;;;;;;;;;;5033319;28;20457;-62
2023/07/14 02:53:58;;;;;;;2.53;1.80;;;;;;;;;;5033599;28;20447;-62
2023/07/14 02:56:24;;;;;;;1.70;1.60;;;;;;;;;;5036618;28;20443;-62
2023/07/14 02:58:51;;;;;;;1.60;1.50;;;;;;;;;;5036613;28;20754;-62
2023/07/14 03:01:18;;;;;;;2.00;1.80;;;;;;;;;;5036883;28;20544;-62
2023/07/14 03:03:45;;;;;;;1.90;1.40;;;;;;;;;;5036972;28;20772;-62
2023/07/14 03:06:12;;;;;;;2.00;1.40;;;;;;;;;;5036731;28;20430;-62
2023/07/14 03:08:38;;;;;;;3.13;1.60;;;;;;;;;;5036538;28;20879;-62
2023/07/14 03:11:04;;;;;;;1.90;1.80;;;;;;;;;;5036896;28;20446;-63
2023/07/14 03:13:31;;;;;;;2.00;1.80;;;;;;;;;;5036612;28;20423;-62
2023/07/14 03:15:57;;;;;;;2.50;1.50;;;;;;;;;;5036684;28;20415;-62
2023/07/14 03:18:23;;;;;;;1.87;1.50;;;;;;;;;;5037113;28;20511;-62
2023/07/14 03:20:54;;;;;;;2.20;2.00;;;;;;;;;;5036438;28;20415;-62
2023/07/14 03:23:20;;;;;;;1.97;1.87;;;;;;;;;;5037039;28;20512;-62
2023/07/14 03:25:47;;;;;;;2.37;2.20;;;;;;;;;;5036353;28;20897;-62
2023/07/14 03:28:13;;;;;;;2.37;2.17;;;;;;;;;;5036324;28;20474;-62
2023/07/14 03:30:42;;;;;;;2.17;1.93;;;;;;;;;;5036073;28;20411;-62
2023/07/14 03:33:08;;;;;;;1.40;1.40;;;;;;;;;;5035962;28;20902;-62
2023/07/14 03:35:34;;;;;;;7.53;1.90;;;;;;;;;;5035908;28;20496;-62
2023/07/14 03:38:00;;;;;;;1.43;1.40;;;;;;;;;;5036247;28;20510;-62
2023/07/14 03:40:26;;;;;;;2.33;2.23;;;;;;;;;;5035826;28;20420;-62
2023/07/14 03:42:52;;;;;;;2.50;1.67;;;;;;;;;;5035786;28;20525;-62
2023/07/14 03:45:18;;;;;;;1.87;1.73;;;;;;;;;;5035824;28;20498;-62
2023/07/14 03:47:44;;;;;;;2.23;2.10;;;;;;;;;;5036090;28;20957;-62
2023/07/14 03:50:12;;;;;;;1.40;1.40;;;;;;;;;;5035563;28;20586;-62
2023/07/14 03:52:38;;;;;;;2.13;2.03;;;;;;;;;;5035877;28;20427;-62
2023/07/14 03:55:04;;;;;;;1.67;1.60;;;;;;;;;;5035519;28;20741;-62
2023/07/14 03:57:31;;;;;;;1.20;1.20;;;;;;;;;;5035509;28;20423;-62
2023/07/14 03:59:57;;;;;;;1.20;1.20;;;;;;;;;;5035734;28;20416;-62
2023/07/14 04:02:23;;;;;;;2.27;2.00;;;;;;;;;;5035347;28;20767;-62
2023/07/14 04:04:49;;;;;;;2.63;2.53;;;;;;;;;;5050730;28;20458;-62
2023/07/14 04:07:16;;;;;;;2.27;2.17;;;;;;;;;;5035432;28;20537;-62
2023/07/14 04:09:42;;;;;;;1.97;1.90;;;;;;;;;;5035477;28;20407;-63
2023/07/14 04:12:08;;;;;;;2.00;1.90;;;;;;;;;;5035247;28;20930;-63
2023/07/14 04:14:35;;;;;;;2.90;1.33;;;;;;;;;;5035477;28;20591;-62
2023/07/14 04:17:01;;;;;;;4.10;1.67;;;;;;;;;;5035519;28;20433;-62
2023/07/14 04:19:27;;;;;;;3.13;1.87;;;;;;;;;;5035120;28;20415;-62
2023/07/14 04:21:53;;;;;;;1.87;1.77;;;;;;;;;;5035020;28;20419;-62
2023/07/14 04:24:18;;;;;;;2.00;2.00;;;;;;;;;;5034963;28;20419;-62
2023/07/14 04:26:44;;;;;;;1.80;1.70;;;;;;;;;;5035018;28;20471;-62
2023/07/14 04:29:11;;;;;;;2.37;2.00;;;;;;;;;;5035238;28;20403;-63
2023/07/14 04:31:38;;;;;;;1.90;1.80;;;;;;;;;;5035108;28;20450;-62
2023/07/14 04:34:04;;;;;;;4.50;2.17;;;;;;;;;;5034968;28;20416;-62
2023/07/14 04:36:30;;;;;;;5.30;1.40;;;;;;;;;;5035521;28;20446;-62
2023/07/14 04:39:07;;;;;;;2.20;2.10;;;;;;;;;;5034689;28;20447;-62
2023/07/14 04:41:33;;;;;;;2.33;1.73;;;;;;;;;;5034830;28;20427;-62
2023/07/14 04:44:06;;;;;;;1.50;1.50;;;;;;;;;;5034880;28;20465;-62
2023/07/14 04:46:32;;;;;;;1.30;1.30;;;;;;;;;;5034522;28;20473;-61
2023/07/14 04:48:58;;;;;;;3.83;2.23;;;;;;;;;;5034570;28;20502;-62
2023/07/14 04:51:24;;;;;;;1.80;1.80;;;;;;;;;;5034382;28;20888;-62
2023/07/14 04:53:50;;;;;;;3.57;2.23;;;;;;;;;;5034797;28;20551;-62
2023/07/14 04:56:16;;;;;;;7.50;2.87;;;;;;;;;;5034741;28;20930;-62
2023/07/14 04:58:42;;;;;;;8.93;2.20;;;;;;;;;;5034594;28;20407;-62
2023/07/14 05:01:09;;;;;;;6.93;2.50;;;;;;;;;;5034828;28;20426;-62
2023/07/14 05:03:35;;;;;;;4.47;4.17;;;;;;;;;;5034257;28;20510;-62
2023/07/14 05:06:01;;;;;;;4.83;4.53;;;;;;;;;;5034377;28;20422;-61
2023/07/14 05:08:27;;;;;;;4.73;4.10;;;;;;;;;;5034394;28;20479;-61
2023/07/14 05:10:53;;;;;;;5.60;2.87;;;;;;;;;;5034132;28;20423;-61
2023/07/14 05:13:19;;;;;;;2.47;2.30;;;;;;;;;;5033935;28;20431;-61
2023/07/14 05:15:45;;;;;;;3.13;2.80;;;;;;;;;;5034575;28;20420;-62
2023/07/14 05:18:11;;;;;;;2.97;2.65;;;;;;;;;;5034000;28;20520;-62
2023/07/14 05:20:39;;;;;;;9.30;3.33;;;;;;;;;;5034236;28;20268;-61
2023/07/14 05:23:05;;;;;;;3.57;3.10;;;;;;;;;;5049142;28;20419;-62
2023/07/14 05:25:31;;;;;;;4.97;2.97;;;;;;;;;;5034178;28;20933;-62
2023/07/14 05:27:57;;;;;;;2.70;2.60;;;;;;;;;;5034069;28;20478;-61
2023/07/14 05:30:23;;;;;;;2.27;2.17;;;;;;;;;;5033991;28;20829;-62
2023/07/14 05:32:49;;;;;;;2.60;2.50;;;;;;;;;;5033676;28;20419;-62
2023/07/14 05:35:16;;;;;;;7.20;3.10;;;;;;;;;;5033955;28;20427;-65
2023/07/14 05:37:42;;;;;;;2.90;2.67;;;;;;;;;;5033947;28;20514;-65
2023/07/14 05:40:10;;;;;;;4.40;2.70;;;;;;;;;;5033876;28;20419;-65
2023/07/14 05:42:36;;;;;;;3.10;2.80;;;;;;;;;;5033484;28;20981;-65
2023/07/14 05:45:03;;;;;;;4.93;2.40;;;;;;;;;;5033763;28;20511;-66
2023/07/14 05:47:29;;;;;;;2.80;1.90;;;;;;;;;;5033722;28;20537;-65
2023/07/14 05:49:55;;;;;;;2.00;1.90;;;;;;;;;;5033628;28;20463;-65
2023/07/14 05:52:22;;;;;;;5.03;2.50;;;;;;;;;;5033658;28;20426;-65
2023/07/14 05:54:48;;;;;;;4.10;2.40;;;;;;;;;;5033578;28;20411;-66
2023/07/14 05:57:14;;;;;;;3.10;2.90;;;;;;;;;;5034460;28;20427;-66
2023/07/14 05:59:40;;;;;;;2.03;1.77;;;;;;;;;;5033921;28;20412;-65
2023/07/14 06:02:09;;;;;;;5.50;2.13;;;;;;;;;;5033188;28;20430;-65
2023/07/14 06:04:36;;;;;;;2.60;2.50;;;;;;;;;;5033316;28;20436;-65
2023/07/14 06:07:03;;;;;;;6.67;2.10;;;;;;;;;;5033149;28;20451;-65
2023/07/14 06:09:32;;;;;;;2.60;2.60;;;;;;;;;;5033484;28;20521;-66
2023/07/14 06:11:58;;;;;;;7.93;2.90;;;;;;;;;;5033213;28;20411;-65
2023/07/14 06:14:24;;;;;;;4.40;3.03;;;;;;;;;;5033403;28;20481;-66
2023/07/14 06:16:53;;;;;;;3.80;3.20;;;;;;;;;;5033744;28;20949;-67
2023/07/14 06:19:19;;;;;;;2.97;2.77;;;;;;;;;;5033383;28;20509;-65
2023/07/14 06:21:45;;;;;;;6.90;2.57;;;;;;;;;;5033060;28;20491;-65
2023/07/14 06:24:11;;;;;;;3.17;2.00;;;;;;;;;;5033072;28;20506;-67
2023/07/14 06:26:37;;;;;;;2.27;2.17;;;;;;;;;;5033070;28;20478;-65
2023/07/14 06:29:03;;;;;;;3.80;2.57;;;;;;;;;;5034365;28;20403;-66
2023/07/14 06:31:29;;;;;;;1.70;1.70;;;;;;;;;;5037403;28;20995;-65
2023/07/14 06:33:55;;;;;;;3.40;2.87;;;;;;;;;;5036975;28;20808;-65
2023/07/14 06:36:21;;;;;;;2.70;2.47;;;;;;;;;;5037063;28;20423;-65
2023/07/14 06:38:47;;;;;;;13.73;2.70;;;;;;;;;;5036938;28;20415;-66
2023/07/14 06:41:14;;;;;;;2.50;2.40;;;;;;;;;;5037248;28;20930;-66
2023/07/14 06:43:40;;;;;;;5.27;2.23;;;;;;;;;;5037079;28;20894;-65
2023/07/14 06:46:06;;;;;;;3.43;2.23;;;;;;;;;;5036980;28;20423;-66
2023/07/14 06:48:33;;;;;;;2.17;2.07;;;;;;;;;;5036725;28;20474;-67
2023/07/14 06:50:59;;;;;;;4.27;2.67;;;;;;;;;;5036671;28;20519;-67
2023/07/14 06:53:25;;;;;;;2.27;2.17;;;;;;;;;;5036622;28;20840;-67
2023/07/14 06:55:52;;;;;;;4.87;2.20;;;;;;;;;;5036557;28;20883;-67
2023/07/14 06:58:18;;;;;;;5.67;3.00;;;;;;;;;;5036722;28;20426;-67
2023/07/14 07:00:44;;;;;;;2.10;2.00;;;;;;;;;;5036890;28;20415;-67
2023/07/14 07:03:10;;;;;;;2.67;2.57;;;;;;;;;;5036556;28;20272;-67
2023/07/14 07:05:40;;;;;;;2.50;2.30;;;;;;;;;;5037209;28;20510;-68
2023/07/14 07:08:10;;;;;;;3.83;3.63;;;;;;;;;;5036255;28;20478;-67
2023/07/14 07:10:36;;;;;;;4.43;2.03;;;;;;;;;;5036529;28;20533;-66
2023/07/14 07:13:03;;;;;;;1.60;1.60;;;;;;;;;;5036375;28;20415;-67
2023/07/14 07:15:29;;;;;;;5.30;2.47;;;;;;;;;;5036483;28;20442;-67
2023/07/14 07:17:55;;;;;;;3.07;2.40;;;;;;;;;;5036204;28;20419;-66
2023/07/14 07:20:21;;;;;;;3.20;2.03;;;;;;;;;;5035989;28;20415;-65
2023/07/14 07:22:48;;;;;;;2.53;2.10;;;;;;;;;;5036578;28;20426;-64
2023/07/14 07:25:14;;;;;;;3.53;2.43;;;;;;;;;;5036166;28;20411;-64
2023/07/14 07:27:40;;;;;;;5.07;2.40;;;;;;;;;;5036240;28;20923;-65
2023/07/14 07:30:06;;;;;;;6.90;2.00;;;;;;;;;;5036152;28;20789;-64
2023/07/14 07:32:32;;;;;;;3.50;2.40;;;;;;;;;;5036259;28;20427;-66
2023/07/14 07:35:00;;;;;;;6.23;2.20;;;;;;;;;;5036129;28;20825;-64
2023/07/14 07:37:27;;;;;;;1.70;1.60;;;;;;;;;;5035622;28;20428;-64
2023/07/14 07:39:56;;;;;;;2.67;2.37;;;;;;;;;;5035213;28;20412;-64
2023/07/14 07:42:22;;;;;;;5.60;2.37;;;;;;;;;;5034845;28;20419;-64
2023/07/14 07:44:48;;;;;;;5.80;2.80;;;;;;;;;;5035458;28;20918;-64
2023/07/14 07:47:14;;;;;;;2.67;2.57;;;;;;;;;;5035597;28;20475;-64
2023/07/14 07:49:40;;;;;;;3.77;3.40;;;;;;;;;;5035353;28;20458;-64
2023/07/14 07:52:07;;;;;;;4.20;2.40;;;;;;;;;;5036190;28;20415;-65
2023/07/14 07:54:33;;;;;;;3.70;2.67;;;;;;;;;;5036233;28;20415;-65
2023/07/14 07:56:59;;;;;;;2.57;2.37;;;;;;;;;;5035617;28;20426;-64
2023/07/14 07:59:25;;;;;;;9.07;2.27;;;;;;;;;;5035631;28;20422;-65
2023/07/14 08:01:51;;;;;;;4.83;2.97;;;;;;;;;;5035461;28;20918;-65
2023/07/14 08:04:18;;;;;;;2.70;2.20;;;;;;;;;;5035195;28;20502;-64
2023/07/14 08:06:44;;;;;;;6.10;2.80;;;;;;;;;;5035381;28;20466;-64
2023/07/14 08:09:12;;;;;;;17.93;2.57;;;;;;;;;;5035147;28;20431;-64
2023/07/14 08:11:38;;;;;;;5.63;2.40;;;;;;;;;;5034998;28;20969;-64
2023/07/14 08:14:07;;;;;;;3.20;2.40;;;;;;;;;;5035253;28;20423;-64
2023/07/14 08:16:33;;;;;;;2.00;1.87;;;;;;;;;;5034963;28;20426;-64
2023/07/14 08:18:59;;;;;;;7.30;2.43;;;;;;;;;;5034849;28;20423;-64
2023/07/14 08:21:25;;;;;;;3.93;1.93;;;;;;;;;;5035123;28;20423;-64
2023/07/14 08:23:51;;;;;;;1.90;1.60;;;;;;;;;;5034801;28;20423;-64
2023/07/14 08:26:17;;;;;;;5.67;2.90;;;;;;;;;;5034932;28;20423;-64
2023/07/14 08:28:43;;;;;;;2.37;2.17;;;;;;;;;;5034830;28;20435;-64
2023/07/14 08:31:10;;;;;;;3.00;2.73;;;;;;;;;;5034888;28;20419;-64
2023/07/14 08:33:37;;;;;;;3.53;2.67;;;;;;;;;;5034669;28;20929;-65
2023/07/14 08:36:04;;;;;;;2.83;1.87;;;;;;;;;;5034753;28;20925;-64
2023/07/14 08:38:31;;;;;;;3.03;1.93;;;;;;;;;;5034698;28;20455;-64
2023/07/14 08:41:01;;;;;;;5.50;2.57;;;;;;;;;;5034730;28;20427;-64
2023/07/14 08:43:27;;;;;;;1.80;1.63;;;;;;;;;;5034447;28;20419;-64
2023/07/14 08:45:59;;;;;;;7.03;2.50;;;;;;;;;;5034696;28;20517;-65
2023/07/14 08:48:26;;;;;;;2.40;2.20;;;;;;;;;;5034665;28;20684;-64
2023/07/14 08:50:55;;;;;;;3.70;2.13;;;;;;;;;;5034297;28;20470;-65
2023/07/14 08:53:24;;;;;;;1.97;1.87;;;;;;;;;;5034064;28;20415;-64
2023/07/14 08:55:50;;;;;;;8.13;2.50;;;;;;;;;;5034220;28;20581;-64
2023/07/14 08:58:24;;;;;;;3.83;2.37;;;;;;;;;;5034268;28;20451;-65
2023/07/14 09:00:51;;;;;;;6.13;1.83;;;;;;;;;;5034383;28;20430;-65
2023/07/14 09:03:26;;;;;;;5.80;2.03;;;;;;;;;;5034350;28;20952;-66
2023/07/14 09:05:53;;;;;;;9.67;1.90;;;;;;;;;;5034033;28;20415;-65
2023/07/14 09:08:21;;;;;;;2.97;2.63;;;;;;;;;;5033912;28;20474;-64
2023/07/14 09:10:48;;;;;;;2.10;2.00;;;;;;;;;;5049260;28;20937;-65
2023/07/14 09:13:18;;;;;;;4.00;1.80;;;;;;;;;;5034130;28;20454;-65
2023/07/14 09:15:45;;;;;;;2.00;1.90;;;;;;;;;;5034234;28;20875;-64
2023/07/14 09:18:27;;;;;;;2.70;1.73;;;;;;;;;;5033639;28;20433;-64
2023/07/14 09:20:53;;;;;;;3.53;2.37;;;;;;;;;;5034173;28;20457;-64
2023/07/14 09:23:38;;;;;;;4.93;1.90;;;;;;;;;;5033639;28;20427;-64
2023/07/14 09:26:04;;;;;;;2.17;1.97;;;;;;;;;;5033843;28;20169;-65
2023/07/14 09:28:35;;;;;;;3.40;2.03;;;;;;;;;;5032534;28;20503;-69
2023/07/14 09:31:05;;;;;;;7.43;2.27;;;;;;;;;;5033936;28;20168;-69
2023/07/14 09:33:41;;;;;;;8.07;2.60;;;;;;;;;;5048568;28;20914;-69
2023/07/14 09:36:10;;;;;;;11.03;3.20;;;;;;;;;;5033384;28;20442;-69
2023/07/14 09:38:48;;;;;;;4.57;2.20;;;;;;;;;;5033322;28;20451;-69
2023/07/14 09:41:16;;;;;;;7.40;2.97;;;;;;;;;;5033244;28;20453;-69
2023/07/14 09:43:42;;;;;;;3.13;2.90;;;;;;;;;;5033056;28;20998;-69
2023/07/14 09:46:09;;;;;;;7.50;3.10;;;;;;;;;;5033626;28;20416;-69
2023/07/14 09:48:41;;;;;;;8.13;2.70;;;;;;;;;;5033410;28;20482;-69
2023/07/14 09:51:11;;;;;;;5.53;3.23;;;;;;;;;;5033176;28;21072;-69
2023/07/14 09:53:38;;;;;;;2.50;2.30;;;;;;;;;;5032977;28;20407;-69
2023/07/14 09:56:20;;;;;;;2.07;1.97;;;;;;;;;;5033180;28;20462;-69
2023/07/14 10:01:52;;;;;;;5.90;2.60;;;;;;;;;;5033033;28;20406;-69
2023/07/14 10:04:18;;;;;;;3.63;2.40;;;;;;;;;;5048218;28;20427;-69
2023/07/14 10:06:47;;;;;;;2.03;2.00;;;;;;;;;;5033253;28;20467;-69
2023/07/14 10:09:16;;;;;;;4.10;2.07;;;;;;;;;;5033251;28;20455;-69
2023/07/14 10:11:49;;;;;;;4.27;2.43;;;;;;;;;;5033147;28;20521;-68
2023/07/14 10:14:25;;;;;;;4.03;2.20;;;;;;;;;;5033065;28;20797;-69
2023/07/14 10:16:53;;;;;;;3.03;2.63;;;;;;;;;;5032971;28;20497;-69
2023/07/14 10:22:31;;;;;;;4.17;2.20;;;;;;;;;;5032847;28;20597;-69
2023/07/14 10:24:58;;;;;;;2.90;1.90;;;;;;;;;;5032782;28;20442;-69
2023/07/14 10:27:25;;;;;;;1.67;1.67;;;;;;;;;;5033325;28;20462;-69
2023/07/14 10:30:09;;;;;;;5.50;1.80;;;;;;;;;;5032979;28;20510;-69
2023/07/14 10:32:40;;;;;;;3.80;2.40;;;;;;;;;;5032951;28;20404;-69
2023/07/14 10:35:16;;;;;;;8.27;3.20;;;;;;;;;;5033043;28;20419;-69
2023/07/14 10:37:48;;;;;;;3.07;1.63;;;;;;;;;;5032645;28;20421;-69
2023/07/14 10:40:18;;;;;;;3.50;1.90;;;;;;;;;;5032912;28;20419;-69
2023/07/14 10:42:53;;;;;;;6.50;2.20;;;;;;;;;;5032526;28;20415;-69
2023/07/14 10:45:19;;;;;;;2.43;2.20;;;;;;;;;;5033005;28;20510;-69
2023/07/14 10:47:54;;;;;;;4.87;2.20;;;;;;;;;;5032743;28;20903;-69
2023/07/14 10:50:27;;;;;;;1.83;1.77;;;;;;;;;;5032377;28;20467;-69
2023/07/14 10:52:57;;;;;;;3.93;2.10;;;;;;;;;;5032648;28;20408;-69
2023/07/14 10:55:23;;;;;;;2.73;2.10;;;;;;;;;;5032548;28;20434;-69
2023/07/14 10:57:52;;;;;;;2.70;2.10;;;;;;;;;;5032242;28;20463;-62
2023/07/14 11:00:22;;;;;;;1.50;1.50;;;;;;;;;;5032811;28;20875;-63
2023/07/14 11:02:59;;;;;;;9.20;1.80;;;;;;;;;;5032559;28;20436;-62
2023/07/14 11:05:26;;;;;;;2.10;1.67;;;;;;;;;;5032610;28;20472;-62
2023/07/14 11:07:54;;;;;;;6.20;2.57;;;;;;;;;;5032258;28;20470;-64
2023/07/14 11:10:19;;;;;;;2.60;2.40;;;;;;;;;;5032558;28;20423;-62
2023/07/14 11:12:49;;;;;;;3.33;2.07;;;;;;;;;;5032476;28;20423;-62
2023/07/14 11:15:15;;;;;;;6.80;2.20;;;;;;;;;;5049097;28;20250;-68
2023/07/14 11:17:51;;;;;;;11.43;2.47;;;;;;;;;;5051411;28;20531;-69
2023/07/14 11:20:26;;;;;;;6.90;2.60;;;;;;;;;;5035769;28;20405;-69
2023/07/14 11:22:59;;;;;;;2.80;2.10;;;;;;;;;;5035195;28;20433;-69
2023/07/14 11:25:34;;;;;;;4.10;3.10;;;;;;;;;;5036031;28;20917;-69
2023/07/14 11:28:02;;;;;;;2.77;2.57;;;;;;;;;;5035867;28;20470;-69
2023/07/14 11:30:30;;;;;;;6.90;1.90;;;;;;;;;;5035568;28;20451;-69
2023/07/14 11:33:10;;;;;;;4.03;1.67;;;;;;;;;;5035857;28;20430;-69
2023/07/14 11:35:41;;;;;;;2.50;1.67;;;;;;;;;;5035547;28;20396;-69
2023/07/14 11:38:14;;;;;;;2.03;1.93;;;;;;;;;;5035744;28;20404;-69
2023/07/14 11:40:42;;;;;;;2.77;2.00;;;;;;;;;;5035534;28;20503;-69
2023/07/14 11:43:12;;;;;;;1.60;1.47;;;;;;;;;;5050645;28;20509;-65
2023/07/14 11:45:39;;;;;;;2.50;1.80;;;;;;;;;;5035611;28;20759;-65
2023/07/14 11:48:06;;;;;;;2.33;2.00;;;;;;;;;;5035470;28;20804;-65
2023/07/14 11:50:35;;;;;;;7.27;3.03;;;;;;;;;;5035057;28;20479;-65
2023/07/14 11:53:07;;;;;;;11.43;2.37;;;;;;;;;;5035789;28;20756;-64
2023/07/14 11:55:35;;;;;;;2.40;1.90;;;;;;;;;;5035414;28;20447;-64
2023/07/14 11:58:19;;;;;;;4.50;1.87;;;;;;;;;;5035247;28;20916;-64
2023/07/14 12:00:47;;;;;;;2.63;2.33;;;;;;;;;;5035531;28;20948;-65
2023/07/14 12:03:24;;;;;;;6.30;2.10;;;;;;;;;;5035409;28;20423;-65
2023/07/14 12:06:09;;;;;;;3.80;2.23;;;;;;;;;;5035331;28;20442;-65
2023/07/14 12:08:39;;;;;;;1.63;1.30;;;;;;;;;;5035250;28;20510;-64
2023/07/14 12:11:22;;;;;;;1.70;1.60;;;;;;;;;;5035819;28;20421;-64
2023/07/14 12:13:50;;;;;;;1.57;1.57;;;;;;;;;;5035295;28;20404;-64
2023/07/14 12:16:28;;;;;;;1.90;1.80;;;;;;;;;;5034895;28;20502;-65
2023/07/14 12:18:57;;;;;;;1.67;1.53;;;;;;;;;;5035214;28;20403;-64
2023/07/14 12:21:41;;;;;;;2.97;2.30;;;;;;;;;;5034913;28;20899;-64
2023/07/14 12:24:17;;;;;;;3.47;2.33;;;;;;;;;;5034588;28;20443;-69
2023/07/14 12:26:45;;;;;;;2.00;1.90;;;;;;;;;;5034330;28;20874;-69
2023/07/14 12:29:13;;;;;;;2.00;1.50;;;;;;;;;;5034944;28;20786;-66
2023/07/14 12:31:39;;;;;;;2.33;2.10;;;;;;;;;;5034943;28;20474;-68
2023/07/14 12:34:06;;;;;;;2.20;2.00;;;;;;;;;;5034587;28;20422;-69
2023/07/14 12:36:32;;;;;;;6.07;2.43;;;;;;;;;;5034792;28;20423;-69
2023/07/14 12:38:59;;;;;;;2.27;1.33;;;;;;;;;;5034960;28;20550;-69
2023/07/14 12:41:28;;;;;;;2.00;1.90;;;;;;;;;;5034670;28;20481;-69
2023/07/14 12:43:56;;;;;;;1.43;1.43;;;;;;;;;;5034706;28;20474;-69
2023/07/14 12:46:25;;;;;;;5.47;2.00;;;;;;;;;;5034349;28;20420;-69
2023/07/14 12:48:51;;;;;;;3.13;1.47;;;;;;;;;;5034581;28;20431;-69
2023/07/14 12:51:21;;;;;;;10.63;2.50;;;;;;;;;;5034217;28;20467;-69
2023/07/14 12:53:58;;;;;;;8.63;2.03;;;;;;;;;;5034429;28;20420;-69
2023/07/14 12:56:24;;;;;;;2.93;2.13;;;;;;;;;;5034141;28;20469;-69
2023/07/14 12:58:57;;;;;;;11.30;1.90;;;;;;;;;;5049352;28;20439;-69
2023/07/14 13:01:23;;;;;;;3.20;1.93;;;;;;;;;;5034350;28;20419;-69
2023/07/14 13:03:49;;;;;;;2.00;1.90;;;;;;;;;;5034090;28;20445;-69
2023/07/14 13:06:22;;;;;;;2.20;2.10;;;;;;;;;;5034030;28;20432;-68
2023/07/14 13:08:49;;;;;;;2.63;1.77;;;;;;;;;;5034187;28;20431;-69
2023/07/14 13:11:21;;;;;;;1.50;1.50;;;;;;;;;;5033765;28;20420;-68
2023/07/14 13:13:50;;;;;;;1.73;1.63;;;;;;;;;;5034027;28;20415;-69
2023/07/14 13:16:16;;;;;;;1.53;1.50;;;;;;;;;;5034073;28;20419;-69
2023/07/14 13:18:53;;;;;;;2.50;1.50;;;;;;;;;;5033745;28;20485;-69
2023/07/14 13:21:45;;;;;;;1.57;1.50;;;;;;;;;;5033715;28;20395;-69
2023/07/14 13:24:24;;;;;;;1.80;1.80;;;;;;;;;;5032544;28;20428;-69
2023/07/14 13:26:53;;;;;;;3.80;1.47;;;;;;;;;;5033494;28;20463;-69
2023/07/14 13:32:24;;;;;;;2.73;1.93;;;;;;;;;;5033508;28;20453;-69
2023/07/14 13:34:51;;;;;;;2.00;1.50;;;;;;;;;;5048791;28;20419;-69
2023/07/14 13:37:18;;;;;;;3.70;1.53;;;;;;;;;;5033637;28;20423;-69
2023/07/14 13:39:44;;;;;;;1.33;1.27;;;;;;;;;;5033304;28;20407;-69
2023/07/14 13:42:33;;;;;;;8.97;3.53;;;;;;;;;;5033383;28;20481;-69
2023/07/14 13:45:00;;;;;;;1.60;1.50;;;;;;;;;;5034032;28;20408;-69
2023/07/14 13:47:38;;;;;;;2.93;2.33;;;;;;;;;;5033470;28;20470;-69
2023/07/14 13:50:05;;;;;;;1.90;1.73;;;;;;;;;;5033256;28;20477;-69
2023/07/14 13:52:32;;;;;;;8.90;1.63;;;;;;;;;;5033177;28;20465;-68
2023/07/14 13:55:02;;;;;;;1.80;1.70;;;;;;;;;;5033022;28;20434;-69
2023/07/14 13:57:28;;;;;;;1.50;1.50;;;;;;;;;;5033419;28;20422;-68
2023/07/14 14:03:00;;;;;;;2.90;1.50;;;;;;;;;;5033292;28;20390;-69
2023/07/14 14:05:36;;;;;;;2.30;2.10;;;;;;;;;;5032908;28;20745;-69
2023/07/14 14:08:03;;;;;;;1.87;1.80;;;;;;;;;;5033243;28;20469;-69
2023/07/14 14:10:29;;;;;;;3.70;2.00;;;;;;;;;;5032881;28;20408;-68
2023/07/14 14:12:56;;;;;;;1.50;1.50;;;;;;;;;;5033042;28;20926;-70
2023/07/14 14:15:23;;;;;;;1.77;1.67;;;;;;;;;;5032869;28;20427;-68
2023/07/14 14:17:56;;;;;;;9.20;2.23;;;;;;;;;;5032875;28;20796;-69
2023/07/14 14:20:24;;;;;;;2.30;2.20;;;;;;;;;;5033102;28;20738;-69
2023/07/14 14:22:52;;;;;;;3.90;2.17;;;;;;;;;;5032645;28;20902;-69
2023/07/14 14:25:20;;;;;;;4.23;1.53;;;;;;;;;;5033026;28;20808;-69
2023/07/14 14:27:49;;;;;;;2.20;1.60;;;;;;;;;;5032815;28;20556;-68
2023/07/14 14:30:16;;;;;;;3.67;1.80;;;;;;;;;;5032874;28;20906;-69
2023/07/14 14:32:43;;;;;;;1.70;1.60;;;;;;;;;;5032828;28;20424;-69
2023/07/14 14:35:32;;;;;;;6.43;1.80;;;;;;;;;;5032769;28;20514;-69
2023/07/14 14:37:58;;;;;;;3.80;1.50;;;;;;;;;;5033004;28;20403;-69
2023/07/14 14:40:29;;;;;;;1.60;1.50;;;;;;;;;;5032710;28;20419;-69
2023/07/14 14:43:15;;;;;;;8.57;3.60;;;;;;;;;;5033182;28;20492;-68
2023/07/14 14:45:41;;;;;;;1.63;1.63;;;;;;;;;;5032737;28;20490;-69
2023/07/14 14:48:19;;;;;;;2.47;1.63;;;;;;;;;;5032856;28;20554;-69
2023/07/14 14:50:46;;;;;;;4.90;1.33;;;;;;;;;;5034398;28;20562;-68
2023/07/14 14:53:12;;;;;;;2.07;1.93;;;;;;;;;;5036707;28;20462;-69
2023/07/14 14:55:39;;;;;;;3.17;2.13;;;;;;;;;;5036490;28;20418;-68
2023/07/14 14:58:05;;;;;;;1.20;1.20;;;;;;;;;;5037286;28;20440;-69
2023/07/14 15:00:33;;;;;;;1.90;1.60;;;;;;;;;;5036894;28;20423;-68
2023/07/14 15:02:59;;;;;;;3.33;1.47;;;;;;;;;;5036474;28;20418;-69
2023/07/14 15:05:25;;;;;;;1.67;1.47;;;;;;;;;;5036798;28;20855;-69
2023/07/14 15:07:52;;;;;;;2.53;1.40;;;;;;;;;;5036322;28;20957;-68